createdAt,value
2018-10-19T00:01:37.936Z,11.10
2018-10-19T00:04:06.155Z,11.00
2018-10-19T00:06:34.361Z,10.90
2018-10-19T00:09:02.663Z,10.80
2018-10-19T00:11:30.829Z,10.70
2018-10-19T00:13:59.028Z,10.60
2018-10-19T00:16:27.238Z,10.50
2018-10-19T00:18:55.440Z,10.50
2018-10-19T00:21:23.653Z,10.40
2018-10-19T00:23:51.860Z,10.30
2018-10-19T00:26:20.064Z,10.30
2018-10-19T00:28:48.267Z,10.10
2018-10-19T00:31:16.525Z,10.10
2018-10-19T00:33:44.726Z,10.00
2018-10-19T00:36:12.933Z,10.00
2018-10-19T00:38:41.133Z,10.00
2018-10-19T00:41:09.394Z,10.00
2018-10-19T00:43:37.541Z,9.90
2018-10-19T00:46:05.760Z,9.80
2018-10-19T00:48:33.963Z,9.80
2018-10-19T00:51:02.185Z,9.70
2018-10-19T00:53:30.380Z,9.60
2018-10-19T00:55:58.571Z,9.60
2018-10-19T00:58:26.783Z,9.60
2018-10-19T01:00:55.039Z,9.70
2018-10-19T01:03:23.236Z,9.70
2018-10-19T01:05:51.512Z,9.70
2018-10-19T01:08:19.725Z,9.70
2018-10-19T01:10:47.951Z,9.70
2018-10-19T01:13:16.179Z,9.70
2018-10-19T01:15:44.404Z,9.60
2018-10-19T01:18:12.628Z,9.60
2018-10-19T01:20:40.855Z,9.60
2018-10-19T01:23:09.121Z,9.50
2018-10-19T01:25:40.422Z,9.50
2018-10-19T01:28:09.197Z,9.40
2018-10-19T01:30:37.438Z,9.30
2018-10-19T01:33:05.712Z,9.30
2018-10-19T01:35:33.903Z,9.20
2018-10-19T01:38:02.120Z,9.20
2018-10-19T01:40:30.345Z,9.10
2018-10-19T01:42:58.552Z,9.10
2018-10-19T01:45:28.564Z,9.10
2018-10-19T01:47:56.994Z,9.00
2018-10-19T01:50:25.228Z,9.00
2018-10-19T01:52:53.538Z,9.10
2018-10-19T01:55:21.747Z,9.10
2018-10-19T01:57:49.968Z,9.10
2018-10-19T02:00:18.190Z,9.00
2018-10-19T02:02:46.461Z,9.00
2018-10-19T02:05:14.719Z,9.00
2018-10-19T02:07:42.902Z,8.90
2018-10-19T02:10:11.124Z,8.70
2018-10-19T02:12:39.344Z,8.70
2018-10-19T02:15:08.103Z,8.70
2018-10-19T02:17:36.291Z,8.70
2018-10-19T02:20:04.514Z,8.70
2018-10-19T02:22:32.732Z,8.70
2018-10-19T02:25:00.967Z,8.50
2018-10-19T02:27:29.186Z,8.40
2018-10-19T02:29:57.396Z,8.20
2018-10-19T02:32:25.609Z,8.30
2018-10-19T02:34:53.800Z,8.30
2018-10-19T02:37:22.020Z,8.30
2018-10-19T02:39:50.220Z,8.30
2018-10-19T02:42:18.419Z,8.30
2018-10-19T02:44:46.641Z,8.30
2018-10-19T02:47:14.920Z,8.30
2018-10-19T02:49:43.067Z,8.20
2018-10-19T02:52:11.278Z,8.20
2018-10-19T02:54:39.484Z,8.20
2018-10-19T02:57:08.009Z,8.20
2018-10-19T02:59:36.164Z,8.20
2018-10-19T03:02:04.581Z,8.00
2018-10-19T03:04:32.812Z,8.00
2018-10-19T03:07:01.027Z,7.90
2018-10-19T03:09:29.252Z,7.80
2018-10-19T03:11:57.480Z,7.80
2018-10-19T03:14:26.026Z,7.80
2018-10-19T03:16:54.250Z,7.80
2018-10-19T03:19:22.480Z,7.60
2018-10-19T03:21:50.727Z,7.60
2018-10-19T03:24:18.968Z,7.60
2018-10-19T03:26:47.199Z,7.60
2018-10-19T03:29:15.537Z,7.60
2018-10-19T03:31:43.685Z,7.60
2018-10-19T03:34:11.904Z,7.50
2018-10-19T03:36:40.140Z,7.50
2018-10-19T03:39:09.288Z,7.30
2018-10-19T03:41:37.644Z,7.20
2018-10-19T03:44:05.961Z,7.20
2018-10-19T03:46:34.228Z,7.10
2018-10-19T03:49:02.499Z,7.10
2018-10-19T03:51:30.703Z,7.10
2018-10-19T03:53:58.936Z,7.10
2018-10-19T03:56:27.148Z,7.30
2018-10-19T03:58:55.405Z,7.20
2018-10-19T04:01:23.589Z,7.10
2018-10-19T04:03:51.831Z,7.20
2018-10-19T04:06:20.071Z,7.30
2018-10-19T04:08:48.325Z,7.30
2018-10-19T04:11:16.695Z,7.30
2018-10-19T04:13:44.839Z,7.20
2018-10-19T04:16:13.061Z,7.10
2018-10-19T04:18:41.267Z,7.10
2018-10-19T04:21:09.530Z,7.00
2018-10-19T04:23:37.693Z,7.00
2018-10-19T04:26:06.016Z,7.00
2018-10-19T04:28:34.232Z,7.00
2018-10-19T04:31:02.451Z,7.10
2018-10-19T04:33:30.656Z,7.10
2018-10-19T04:35:58.867Z,7.20
2018-10-19T04:38:27.102Z,7.20
2018-10-19T04:40:55.317Z,7.10
2018-10-19T04:43:23.627Z,7.00
2018-10-19T04:45:52.016Z,7.00
2018-10-19T04:48:20.228Z,7.00
2018-10-19T04:50:48.435Z,7.00
2018-10-19T04:53:16.750Z,7.00
2018-10-19T04:55:44.856Z,7.10
2018-10-19T04:58:13.077Z,6.90
2018-10-19T05:00:41.299Z,6.80
2018-10-19T05:03:09.617Z,6.70
2018-10-19T05:05:37.762Z,6.60
2018-10-19T05:08:06.062Z,6.50
2018-10-19T05:10:34.247Z,6.50
2018-10-19T05:13:02.547Z,6.50
2018-10-19T05:15:30.673Z,6.60
2018-10-19T05:17:58.888Z,6.40
2018-10-19T05:20:27.099Z,6.30
2018-10-19T05:22:55.320Z,6.10
2018-10-19T05:25:23.532Z,6.10
2018-10-19T05:27:51.741Z,6.20
2018-10-19T05:30:19.947Z,6.30
2018-10-19T05:32:48.203Z,6.30
2018-10-19T05:35:16.460Z,6.30
2018-10-19T05:37:44.606Z,6.30
2018-10-19T05:40:12.827Z,6.40
2018-10-19T05:42:41.075Z,6.30
2018-10-19T05:45:10.491Z,6.40
2018-10-19T05:47:38.716Z,6.30
2018-10-19T05:50:07.946Z,6.30
2018-10-19T05:52:36.597Z,6.30
2018-10-19T05:55:04.762Z,6.30
2018-10-19T05:57:32.976Z,6.30
2018-10-19T06:00:01.192Z,6.30
2018-10-19T06:02:29.978Z,6.30
2018-10-19T06:04:58.077Z,6.30
2018-10-19T06:07:26.292Z,6.30
2018-10-19T06:09:54.494Z,6.40
2018-10-19T06:12:22.723Z,6.40
2018-10-19T06:14:50.944Z,6.50
2018-10-19T06:17:19.155Z,6.60
2018-10-19T06:19:47.392Z,6.70
2018-10-19T06:22:15.631Z,6.70
2018-10-19T06:24:43.835Z,6.80
2018-10-19T06:27:12.063Z,6.90
2018-10-19T06:29:40.481Z,7.00
2018-10-19T06:32:08.765Z,7.10
2018-10-19T06:34:36.936Z,7.30
2018-10-19T06:37:05.293Z,7.40
2018-10-19T06:39:33.543Z,7.40
2018-10-19T06:42:01.777Z,7.50
2018-10-19T06:44:30.004Z,7.50
2018-10-19T06:46:58.257Z,7.60
2018-10-19T06:49:26.461Z,7.70
2018-10-19T06:51:54.712Z,7.80
2018-10-19T06:54:22.945Z,8.00
2018-10-19T06:56:51.260Z,8.10
2018-10-19T06:59:19.553Z,8.20
2018-10-19T07:01:47.731Z,8.40
2018-10-19T07:04:15.951Z,8.50
2018-10-19T07:06:44.184Z,8.70
2018-10-19T07:09:12.399Z,8.80
2018-10-19T07:11:40.603Z,8.90
2018-10-19T07:14:08.840Z,9.10
2018-10-19T07:16:37.044Z,9.40
2018-10-19T07:19:05.606Z,9.60
2018-10-19T07:21:33.819Z,9.90
2018-10-19T07:24:02.001Z,10.40
2018-10-19T07:26:30.212Z,11.20
2018-10-19T07:28:58.432Z,11.80
2018-10-19T07:31:26.647Z,12.40
2018-10-19T07:33:55.143Z,13.10
2018-10-19T07:36:23.636Z,14.00
2018-10-19T07:38:51.965Z,14.20
2018-10-19T07:41:20.167Z,14.40
2018-10-19T07:43:48.376Z,14.70
2018-10-19T07:46:16.604Z,15.30
2018-10-19T07:48:44.823Z,15.60
2018-10-19T07:51:13.031Z,16.20
2018-10-19T07:53:41.244Z,16.80
2018-10-19T07:56:09.517Z,17.20
2018-10-19T07:58:37.740Z,17.60
2018-10-19T08:01:06.007Z,17.70
2018-10-19T08:03:34.172Z,18.70
2018-10-19T08:06:02.406Z,18.90
2018-10-19T08:08:30.607Z,19.60
2018-10-19T08:10:58.841Z,20.60
2018-10-19T08:13:27.056Z,20.70
2018-10-19T08:15:55.292Z,21.20
2018-10-19T08:18:23.524Z,21.70
2018-10-19T08:20:51.735Z,22.60
2018-10-19T08:23:19.943Z,23.40
2018-10-19T08:25:48.160Z,23.10
2018-10-19T08:28:16.372Z,24.00
2018-10-19T08:30:44.612Z,24.70
2018-10-19T08:33:12.824Z,24.80
2018-10-19T08:35:41.101Z,26.00
2018-10-19T08:38:09.323Z,26.10
2018-10-19T08:40:37.543Z,27.20
2018-10-19T08:43:06.403Z,26.90
2018-10-19T08:45:34.569Z,26.80
2018-10-19T08:48:02.777Z,27.40
2018-10-19T08:50:31.000Z,26.40
2018-10-19T08:52:59.244Z,26.40
2018-10-19T08:55:27.441Z,27.10
2018-10-19T08:57:55.714Z,27.70
2018-10-19T09:00:23.886Z,27.30
2018-10-19T09:02:52.100Z,28.70
2018-10-19T09:05:20.316Z,28.20
2018-10-19T09:07:48.532Z,30.20
2018-10-19T09:10:16.748Z,30.60
2018-10-19T09:12:45.053Z,30.20
2018-10-19T09:15:13.221Z,31.40
2018-10-19T09:17:41.428Z,31.00
2018-10-19T09:20:09.646Z,31.30
2018-10-19T09:22:37.956Z,31.70
2018-10-19T09:25:06.229Z,31.10
2018-10-19T09:27:34.448Z,31.00
2018-10-19T09:30:02.651Z,31.40
2018-10-19T09:32:30.871Z,31.00
2018-10-19T09:34:59.135Z,31.90
2018-10-19T09:37:27.312Z,31.30
2018-10-19T09:39:55.522Z,30.60
2018-10-19T09:42:23.731Z,29.70
2018-10-19T09:44:51.935Z,28.40
2018-10-19T09:47:20.181Z,27.50
2018-10-19T09:49:48.387Z,27.10
2018-10-19T09:52:16.607Z,27.20
2018-10-19T09:54:44.821Z,27.20
2018-10-19T09:57:13.135Z,26.70
2018-10-19T09:59:41.275Z,27.00
2018-10-19T10:02:09.582Z,27.20
2018-10-19T10:04:37.767Z,26.20
2018-10-19T10:07:06.123Z,24.90
2018-10-19T10:09:34.288Z,24.10
2018-10-19T10:12:02.513Z,23.70
2018-10-19T10:14:30.744Z,23.40
2018-10-19T10:16:59.029Z,22.90
2018-10-19T10:19:27.212Z,22.90
2018-10-19T10:21:55.443Z,22.70
2018-10-19T10:24:23.680Z,23.30
2018-10-19T10:26:51.956Z,23.30
2018-10-19T10:29:20.208Z,24.30
2018-10-19T10:31:48.448Z,25.10
2018-10-19T10:34:16.744Z,25.50
2018-10-19T10:36:44.931Z,26.30
2018-10-19T10:39:14.130Z,25.80
2018-10-19T10:41:42.219Z,26.70
2018-10-19T10:44:10.479Z,26.30
2018-10-19T10:46:38.714Z,25.00
2018-10-19T10:49:07.052Z,24.80
2018-10-19T10:51:35.259Z,24.20
2018-10-19T10:54:03.486Z,24.10
2018-10-19T10:56:31.716Z,24.30
2018-10-19T10:58:59.938Z,25.20
2018-10-19T11:01:28.169Z,25.30
2018-10-19T11:03:56.480Z,25.80
2018-10-19T11:06:24.659Z,25.80
2018-10-19T11:08:52.895Z,25.50
2018-10-19T11:11:21.123Z,25.50
2018-10-19T11:13:49.332Z,25.10
2018-10-19T11:16:17.548Z,24.30
2018-10-19T11:18:45.764Z,23.60
2018-10-19T11:21:13.984Z,23.60
2018-10-19T11:23:42.209Z,23.20
2018-10-19T11:26:10.424Z,22.20
2018-10-19T11:28:38.628Z,21.80
2018-10-19T11:31:06.918Z,22.00
2018-10-19T11:33:35.076Z,22.80
2018-10-19T11:36:03.281Z,23.10
2018-10-19T11:38:31.507Z,23.40
2018-10-19T11:40:59.736Z,24.30
2018-10-19T11:43:27.958Z,24.60
2018-10-19T11:45:56.187Z,24.90
2018-10-19T11:48:24.403Z,25.40
2018-10-19T11:50:52.619Z,25.70
2018-10-19T11:53:20.848Z,26.30
2018-10-19T11:55:49.060Z,25.80
2018-10-19T11:58:17.405Z,25.40
2018-10-19T12:00:45.505Z,25.10
2018-10-19T12:03:13.712Z,25.20
2018-10-19T12:05:41.946Z,24.80
2018-10-19T12:08:10.160Z,24.60
2018-10-19T12:10:38.411Z,24.70
2018-10-19T12:13:06.675Z,24.30
2018-10-19T12:15:34.847Z,23.70
2018-10-19T12:18:03.066Z,23.50
2018-10-19T12:20:31.277Z,23.10
2018-10-19T12:22:59.504Z,22.50
2018-10-19T12:25:27.721Z,22.00
2018-10-19T12:27:55.960Z,21.60
2018-10-19T12:30:24.256Z,21.40
2018-10-19T12:32:52.510Z,21.00
2018-10-19T12:35:20.721Z,20.80
2018-10-19T12:37:48.933Z,20.70
2018-10-19T12:40:17.139Z,20.70
2018-10-19T12:42:45.363Z,20.70
2018-10-19T12:46:25.879Z,20.60
2018-10-19T12:48:54.621Z,20.60
2018-10-19T12:51:22.784Z,20.50
2018-10-19T12:53:51.013Z,20.60
2018-10-19T12:56:20.011Z,20.70
2018-10-19T12:58:49.212Z,20.60
2018-10-19T13:01:17.487Z,20.50
2018-10-19T13:03:45.712Z,20.60
2018-10-19T13:06:13.923Z,20.60
2018-10-19T13:08:42.143Z,20.90
2018-10-19T13:11:10.364Z,21.00
2018-10-19T13:13:38.600Z,20.80
2018-10-19T13:16:06.867Z,20.90
2018-10-19T13:18:35.051Z,20.60
2018-10-19T13:21:03.412Z,20.40
2018-10-19T13:23:32.276Z,20.30
2018-10-19T13:26:00.746Z,20.20
2018-10-19T13:28:28.996Z,20.30
2018-10-19T13:30:57.225Z,20.70
2018-10-19T13:33:25.655Z,20.90
2018-10-19T13:35:53.951Z,21.10
2018-10-19T13:38:22.646Z,21.30
2018-10-19T13:40:52.252Z,21.30
2018-10-19T13:43:20.510Z,21.30
2018-10-19T13:45:48.853Z,21.10
2018-10-19T13:48:17.080Z,21.00
2018-10-19T13:50:45.315Z,20.90
2018-10-19T13:53:13.536Z,20.70
2018-10-19T13:55:41.764Z,20.50
2018-10-19T13:58:09.983Z,20.40
2018-10-19T14:00:38.446Z,20.10
2018-10-19T14:03:06.682Z,19.90
2018-10-19T14:05:35.354Z,19.70
2018-10-19T14:08:03.417Z,19.50
2018-10-19T14:10:31.637Z,19.30
2018-10-19T14:12:59.839Z,19.30
2018-10-19T14:15:28.056Z,19.20
2018-10-19T14:17:56.267Z,19.10
2018-10-19T14:20:24.493Z,18.90
2018-10-19T14:22:52.724Z,18.90
2018-10-19T14:25:20.912Z,18.80
2018-10-19T14:27:49.183Z,18.70
2018-10-19T14:30:18.279Z,18.50
2018-10-19T14:32:46.510Z,18.30
2018-10-19T14:35:15.113Z,18.30
2018-10-19T14:37:44.376Z,18.20
2018-10-19T14:40:14.158Z,18.10
2018-10-19T14:42:42.830Z,18.00
2018-10-19T14:45:12.332Z,17.90
2018-10-19T14:47:41.351Z,17.80
2018-10-19T14:50:11.452Z,17.70
2018-10-19T14:52:39.667Z,17.60
2018-10-19T14:55:10.784Z,17.40
2018-10-19T14:57:39.016Z,17.30
2018-10-19T15:00:09.056Z,17.10
2018-10-19T15:02:37.379Z,17.10
2018-10-19T15:05:06.103Z,17.00
2018-10-19T15:07:34.335Z,16.90
2018-10-19T15:10:02.703Z,16.80
2018-10-19T15:12:30.825Z,16.80
2018-10-19T15:14:59.123Z,16.60
2018-10-19T15:17:27.312Z,16.60
2018-10-19T15:19:55.540Z,16.50
2018-10-19T15:22:23.795Z,16.40
2018-10-19T15:24:52.227Z,16.40
2018-10-19T15:27:20.469Z,16.30
2018-10-19T15:29:48.772Z,16.30
2018-10-19T15:32:16.964Z,16.20
2018-10-19T15:34:45.204Z,16.20
2018-10-19T15:37:13.466Z,16.10
2018-10-19T15:39:41.705Z,16.00
2018-10-19T15:42:10.011Z,15.90
2018-10-19T15:44:38.169Z,15.80
2018-10-19T15:47:06.389Z,15.70
2018-10-19T15:49:34.623Z,15.70
2018-10-19T15:52:02.974Z,15.50
2018-10-19T15:54:31.204Z,15.50
2018-10-19T15:56:59.506Z,15.40
2018-10-19T15:59:28.179Z,15.30
2018-10-19T16:01:56.407Z,15.30
2018-10-19T16:04:24.640Z,15.20
2018-10-19T16:06:52.871Z,15.10
2018-10-19T16:09:21.112Z,15.00
2018-10-19T16:11:49.351Z,14.90
2018-10-19T16:14:17.585Z,14.80
2018-10-19T16:16:45.816Z,14.70
2018-10-19T16:19:14.044Z,14.60
2018-10-19T16:21:42.269Z,14.50
2018-10-19T16:24:10.599Z,14.40
2018-10-19T16:26:38.744Z,14.20
2018-10-19T16:29:06.988Z,14.20
2018-10-19T16:31:35.216Z,14.10
2018-10-19T16:34:03.459Z,14.00
2018-10-19T16:36:31.689Z,13.90
2018-10-19T16:38:59.977Z,13.70
2018-10-19T16:41:28.188Z,13.60
2018-10-19T16:43:56.411Z,13.50
2018-10-19T16:46:24.774Z,13.30
2018-10-19T16:48:52.896Z,13.20
2018-10-19T16:51:21.136Z,13.10
2018-10-19T16:53:49.460Z,13.00
2018-10-19T16:56:17.588Z,12.80
2018-10-19T16:58:45.820Z,12.80
2018-10-19T17:01:14.174Z,12.60
2018-10-19T17:03:42.510Z,12.50
2018-10-19T17:06:11.554Z,12.50
2018-10-19T17:08:39.805Z,12.40
2018-10-19T17:11:08.153Z,12.30
2018-10-19T17:13:36.408Z,12.30
2018-10-19T17:16:05.079Z,12.30
2018-10-19T17:18:33.380Z,12.20
2018-10-19T17:21:02.485Z,12.10
2018-10-19T17:23:31.481Z,12.00
2018-10-19T17:26:00.513Z,11.90
2018-10-19T17:28:29.565Z,11.80
2018-10-19T17:30:58.700Z,11.70
2018-10-19T17:33:28.399Z,11.60
2018-10-19T17:35:57.715Z,11.60
2018-10-19T17:38:26.725Z,11.50
2018-10-19T17:40:55.755Z,11.40
2018-10-19T17:43:24.777Z,11.30
2018-10-19T17:45:54.825Z,11.20
2018-10-19T17:48:23.833Z,11.20
2018-10-19T17:50:53.596Z,11.00
2018-10-19T17:53:22.400Z,10.90
2018-10-19T17:55:51.369Z,10.90
2018-10-19T17:58:20.407Z,10.80
2018-10-19T18:00:49.113Z,10.60
2018-10-19T18:03:18.093Z,10.50
2018-10-19T18:05:46.404Z,10.50
2018-10-19T18:08:14.722Z,10.40
2018-10-19T18:10:43.100Z,10.40
2018-10-19T18:13:11.373Z,10.50
2018-10-19T18:15:39.690Z,10.30
2018-10-19T18:18:07.899Z,10.20
2018-10-19T18:20:36.143Z,10.20
2018-10-19T18:23:04.550Z,10.00
2018-10-19T18:25:32.683Z,9.90
2018-10-19T18:28:00.928Z,9.80
2018-10-19T18:30:29.218Z,9.70
2018-10-19T18:32:57.461Z,9.60
2018-10-19T18:35:25.719Z,9.50
2018-10-19T18:37:54.702Z,9.40
2018-10-19T18:40:23.007Z,9.40
2018-10-19T18:42:51.262Z,9.40
2018-10-19T18:45:19.503Z,9.30
2018-10-19T18:47:47.848Z,9.20
2018-10-19T18:50:16.230Z,9.20
2018-10-19T18:52:44.367Z,9.40
2018-10-19T18:55:12.697Z,9.50
2018-10-19T18:57:40.882Z,9.50
2018-10-19T19:00:10.258Z,9.40
2018-10-19T19:02:38.549Z,9.40
2018-10-19T19:05:06.828Z,9.20
2018-10-19T19:07:35.081Z,9.10
2018-10-19T19:10:12.362Z,9.00
2018-10-19T19:12:40.666Z,8.90
2018-10-19T19:15:09.348Z,8.80
2018-10-19T19:17:37.661Z,8.80
2018-10-19T19:20:12.154Z,9.00
2018-10-19T19:22:40.659Z,9.00
2018-10-19T19:25:14.278Z,8.90
2018-10-19T19:27:42.613Z,8.80
2018-10-19T19:30:11.063Z,8.90
2018-10-19T19:32:43.561Z,9.00
2018-10-19T19:35:11.875Z,9.00
2018-10-19T19:37:40.108Z,9.10
2018-10-19T19:40:08.362Z,9.10
2018-10-19T19:42:42.096Z,9.10
2018-10-19T19:45:10.348Z,9.00
2018-10-19T19:48:45.746Z,8.90
2018-10-19T19:51:14.060Z,8.80
2018-10-19T19:53:42.679Z,8.80
2018-10-19T19:56:11.383Z,8.90
2018-10-19T19:58:40.044Z,9.00
2018-10-19T20:01:09.543Z,8.90
2018-10-19T20:03:38.423Z,8.90
2018-10-19T20:06:07.251Z,8.90
2018-10-19T20:08:35.516Z,9.00
2018-10-19T20:11:04.487Z,8.90
2018-10-19T20:13:33.061Z,8.90
2018-10-19T20:16:01.402Z,8.90
2018-10-19T20:18:29.675Z,8.90
2018-10-19T20:20:57.899Z,8.90
2018-10-19T20:23:26.131Z,8.80
2018-10-19T20:25:54.429Z,8.80
2018-10-19T20:28:22.623Z,8.70
2018-10-19T20:30:50.946Z,8.70
2018-10-19T20:33:19.272Z,8.80
2018-10-19T20:35:48.288Z,8.70
2018-10-19T20:38:16.602Z,8.60
2018-10-19T20:40:44.802Z,8.40
2018-10-19T20:43:13.155Z,8.20
2018-10-19T20:45:41.429Z,8.30
2018-10-19T20:48:09.686Z,8.30
2018-10-19T20:50:37.978Z,8.50
2018-10-19T20:53:06.226Z,8.50
2018-10-19T20:55:34.617Z,8.50
2018-10-19T20:58:02.818Z,8.60
2018-10-19T21:00:31.055Z,8.70
2018-10-19T21:02:59.300Z,8.80
2018-10-19T21:05:27.528Z,8.90
2018-10-19T21:07:55.783Z,9.00
2018-10-19T21:10:23.993Z,9.10
2018-10-19T21:12:52.236Z,9.10
2018-10-19T21:15:20.478Z,9.10
2018-10-19T21:17:48.730Z,9.10
2018-10-19T21:20:16.970Z,9.10
2018-10-19T21:22:45.337Z,9.20
2018-10-19T21:25:13.589Z,9.20
2018-10-19T21:27:41.821Z,9.20
2018-10-19T21:30:11.549Z,9.20
2018-10-19T21:32:39.772Z,9.20
2018-10-19T21:35:08.078Z,9.20
2018-10-19T21:37:36.248Z,9.20
2018-10-19T21:40:04.504Z,9.20
2018-10-19T21:42:32.720Z,9.30
2018-10-19T21:45:00.940Z,9.30
2018-10-19T21:47:29.375Z,9.30
2018-10-19T21:49:57.866Z,9.40
2018-10-19T21:52:26.074Z,9.50
2018-10-19T21:54:54.303Z,9.50
2018-10-19T21:57:22.520Z,9.50
2018-10-19T21:59:50.739Z,9.50
2018-10-19T22:02:18.960Z,9.50
2018-10-19T22:04:47.181Z,9.50
2018-10-19T22:07:15.877Z,9.50
2018-10-19T22:09:44.100Z,9.50
2018-10-19T22:12:12.331Z,9.60
2018-10-19T22:14:40.560Z,9.60
2018-10-19T22:17:08.840Z,9.60
2018-10-19T22:19:37.018Z,9.70
2018-10-19T22:22:05.407Z,9.70
2018-10-19T22:24:33.636Z,9.70
2018-10-19T22:27:01.872Z,9.70
2018-10-19T22:29:30.108Z,9.70
2018-10-19T22:31:58.343Z,9.70
2018-10-19T22:34:26.571Z,9.70
2018-10-19T22:36:54.807Z,9.70
2018-10-19T22:39:23.016Z,9.70
2018-10-19T22:41:51.248Z,9.80
2018-10-19T22:44:19.467Z,9.70
2018-10-19T22:46:47.708Z,9.70
2018-10-19T22:49:15.972Z,9.70
2018-10-19T22:51:44.162Z,9.70
2018-10-19T22:54:12.393Z,9.80
2018-10-19T22:56:40.650Z,9.80
2018-10-19T22:59:08.912Z,9.80
2018-10-19T23:01:37.065Z,9.90
2018-10-19T23:04:05.660Z,9.90
2018-10-19T23:06:33.884Z,9.90
2018-10-19T23:09:02.111Z,9.80
2018-10-19T23:11:30.454Z,9.80
2018-10-19T23:13:58.674Z,9.80
2018-10-19T23:16:26.904Z,9.80
2018-10-19T23:18:55.192Z,9.70
2018-10-19T23:21:23.373Z,9.70
2018-10-19T23:23:51.601Z,9.60
2018-10-19T23:26:19.819Z,9.60
2018-10-19T23:28:48.047Z,9.50
2018-10-19T23:31:16.394Z,9.50
2018-10-19T23:33:44.529Z,9.40
2018-10-19T23:36:12.753Z,9.40
2018-10-19T23:38:40.968Z,9.30
2018-10-19T23:41:09.278Z,9.40
2018-10-19T23:43:37.460Z,9.40
2018-10-19T23:46:05.891Z,9.30
2018-10-19T23:48:34.103Z,9.30
2018-10-19T23:51:02.337Z,9.30
2018-10-19T23:53:30.540Z,9.30
2018-10-19T23:55:58.752Z,9.30
2018-10-19T23:58:26.976Z,9.40
